TKJ70Z EDDF-LTAC
Flight info
| Callsign | TKJ70Z |
|---|---|
| Flight time | N/A |
| Altitude | 370000 |
| Route | SULUS7S/18 SULUS Z650 VEMUT/N0460F330 DCT BUDEX DCT PESAT/N0458F350 DCT TEGRI DCT RIXEN UA17 YAVRU |
| Aircraft | B738/M-SDE2E3FGHIRWXY/LB1 |
Departure
| Time | 2026-05-04 16:34 |
|---|---|
| Airport | Frankfurt Main Airport (EDDF) |
Arrival
| Time | N/A |
|---|---|
| Airport | Esenboğa International Airport (LTAC) |
| Time | Latitude | Longitude | Altitude | Speed | Heading |
|---|---|---|---|---|---|
| 2026-05-04 15:58 | 50.04998 | 8.57603 | 381 ft | 0 kts | 21° |
| 2026-05-04 16:13 | 50.04975 | 8.57589 | 380 ft | 2 kts | 21° |
| 2026-05-04 16:14 | 50.04950 | 8.57567 | 379 ft | 2 kts | 48° |
| 2026-05-04 16:14 | 50.04937 | 8.57526 | 380 ft | 2 kts | 84° |
| 2026-05-04 16:15 | 50.04916 | 8.57592 | 379 ft | 5 kts | 115° |
| 2026-05-04 16:16 | 50.04908 | 8.57619 | 378 ft | 0 kts | 115° |
| 2026-05-04 16:18 | 50.04907 | 8.57622 | 378 ft | 1 kts | 115° |
| 2026-05-04 16:19 | 50.04873 | 8.57742 | 378 ft | 5 kts | 113° |
| 2026-05-04 16:19 | 50.04849 | 8.57831 | 377 ft | 3 kts | 114° |
| 2026-05-04 16:20 | 50.04777 | 8.57917 | 377 ft | 7 kts | 165° |
| 2026-05-04 16:20 | 50.04673 | 8.57755 | 374 ft | 15 kts | 250° |
| 2026-05-04 16:21 | 50.04557 | 8.57269 | 374 ft | 15 kts | 250° |
| 2026-05-04 16:22 | 50.04476 | 8.56931 | 373 ft | 17 kts | 250° |
| 2026-05-04 16:22 | 50.04353 | 8.56412 | 366 ft | 15 kts | 250° |
| 2026-05-04 16:23 | 50.04343 | 8.56373 | 365 ft | 0 kts | 250° |
| 2026-05-04 16:24 | 50.04334 | 8.56333 | 364 ft | 4 kts | 250° |
| 2026-05-04 16:25 | 50.04308 | 8.56223 | 363 ft | 8 kts | 250° |
| 2026-05-04 16:26 | 50.04173 | 8.55661 | 358 ft | 15 kts | 250° |
| 2026-05-04 16:26 | 50.04038 | 8.55098 | 354 ft | 22 kts | 250° |
| 2026-05-04 16:27 | 50.03931 | 8.54650 | 346 ft | 22 kts | 250° |
| 2026-05-04 16:28 | 50.03746 | 8.53999 | 349 ft | 20 kts | 250° |
| 2026-05-04 16:28 | 50.03605 | 8.53418 | 349 ft | 17 kts | 250° |
| 2026-05-04 16:29 | 50.03441 | 8.52760 | 343 ft | 11 kts | 249° |
| 2026-05-04 16:30 | 50.03434 | 8.52733 | 343 ft | 0 kts | 249° |
| 2026-05-04 16:31 | 50.03429 | 8.52710 | 343 ft | 3 kts | 250° |
| 2026-05-04 16:31 | 50.03335 | 8.52593 | 341 ft | 3 kts | 179° |
| 2026-05-04 16:32 | 50.03328 | 8.52593 | 340 ft | 2 kts | 179° |
| 2026-05-04 16:33 | 50.02527 | 8.52601 | 330 ft | 122 kts | 180° |
| 2026-05-04 16:33 | 50.00242 | 8.52654 | 799 ft | 181 kts | 181° |
| 2026-05-04 16:34 | 49.97724 | 8.52620 | 2082 ft | 189 kts | 176° |
| 2026-05-04 16:34 | 49.96420 | 8.53380 | 2309 ft | 213 kts | 140° |
| 2026-05-04 16:35 | 49.94229 | 8.59918 | 3879 ft | 241 kts | 106° |
| 2026-05-04 16:35 | 49.93688 | 8.68214 | 5424 ft | 274 kts | 101° |
| 2026-05-04 16:36 | 49.93272 | 8.71079 | 6181 ft | 275 kts | 106° |
| 2026-05-04 16:36 | 49.92291 | 8.76796 | 7556 ft | 280 kts | 106° |
| 2026-05-04 16:37 | 49.91387 | 8.82685 | 8924 ft | 286 kts | 105° |
| 2026-05-04 16:37 | 49.90944 | 8.85689 | 9562 ft | 289 kts | 106° |
| 2026-05-04 16:37 | 49.90005 | 8.91890 | 10481 ft | 309 kts | 106° |
| 2026-05-04 16:38 | 49.88974 | 8.98675 | 11138 ft | 339 kts | 105° |